WEATHER DATA

YESTERDAY
Time Temp. Dewp. Hum. Wind dir Wind speed Wind gust Bar. 1h Prec. 24h Prec.
00:02 14 6.1 59 270 0.8 2.2 1016.6 0.0000 0.0000
00:12 13.8 5.9 59 281 0.8 1.9 1016.7 0.0000 0.0000
00:22 13.7 5.8 59 280 0.8 2.2 1016.9 0.0000 0.0000
00:32 13.6 5.7 59 270 1.1 2.5 1016.9 0.0000 0.0000
00:42 13.4 5.6 59 289 0.8 2.2 1016.8 0.0000 0.0000
00:52 13.3 5.5 59 284 0.8 3.3 1016.9 0.0000 0.0000
01:02 13.3 5.7 60 270 0.3 1.9 1017 0.0000 0.0000
01:13 13.1 5.5 60 270 0.3 1.4 1017.2 0.0000 0.0000
01:23 12.9 5.3 60 270 0.3 1.9 1017.1 0.0000 0.0000
01:33 12.8 5.5 61 270 0.8 1.9 1017.2 0.0000 0.0000
01:43 12.6 5.3 61 270 0.3 1.4 1017.3 0.0000 0.0000
01:53 12.5 5.4 62 270 0.3 1.1 1017.5 0.0000 0.0000
02:03 12.3 5.2 62 270 0.3 1.4 1017.6 0.0000 0.0000
02:13 12.1 5.3 63 270 0.3 1.4 1017.6 0.0000 0.0000
02:24 12 5.4 64 302 0.3 1.1 1017.7 0.0000 0.0000
02:34 11.8 5.2 64 270 0.3 1.1 1017.9 0.0000 0.0000
02:43 11.7 5.3 65 291 0.8 1.9 1017.9 0.0000 0.0000
02:53 11.6 5.3 65 293 0.8 1.9 1017.7 0.0000 0.0000
03:04 11.5 5.4 66 270 0.3 1.4 1017.6 0.0000 0.0000
03:14 11.4 5.3 66 270 0.3 1.4 1017.8 0.0000 0.0000
03:24 11.3 5.4 67 270 0.3 1.4 1017.8 0.0000 0.0000
03:34 11.1 5.2 67 304 0.3 0.8 1017.9 0.0000 0.0000
03:44 11 5.3 68 270 0.3 1.1 1017.9 0.0000 0.0000
03:54 10.8 5.1 68 270 0.3 1.1 1017.9 0.0000 0.0000
04:04 10.7 5.3 69 270 0.3 0.8 1017.9 0.0000 0.0000
04:15 10.5 5.1 69 270 0.3 1.1 1017.9 0.0000 0.0000
04:25 10.4 5.2 70 270 0.3 1.4 1017.9 0.0000 0.0000
04:34 10.3 5.1 70 270 0.3 1.1 1017.8 0.0000 0.0000
04:45 10.2 5.2 71 0 0.8 1018.1 0.0000 0.0000
04:55 9.9 4.9 71 0 0.8 1018.1 0.0000 0.0000
05:05 9.6 4.8 72 0 0.3 1018.1 0.0000 0.0000
05:15 9.4 4.6 72 0 0.3 1018.4 0.0000 0.0000
05:26 9.2 4.6 73 270 0.3 0.8 1018.2 0.0000 0.0000
05:35 9.1 4.7 74 0 0.8 1018.5 0.0000 0.0000
05:45 8.7 4.3 74 0 0.8 1018.5 0.0000 0.0000
05:55 8.5 4.3 75 270 0.3 0.8 1018.6 0.0000 0.0000
06:06 8.4 4.4 76 239 0.3 0.8 1018.7 0.0000 0.0000
06:16 8.4 4.6 77 0 0.8 1018.8 0.0000 0.0000
06:25 8.4 4.6 77 0 0.3 1018.9 0.0000 0.0000
06:36 8.5 4.9 78 0 0.8 1019.1 0.0000 0.0000
06:46 8.7 5.1 78 270 0.3 0.8 1019.1 0.0000 0.0000
06:56 9.1 5.7 79 270 0.3 1.4 1019.3 0.0000 0.0000
07:06 9.5 5.9 78 270 0.8 1.4 1019.3 0.0000 0.0000
07:16 9.9 6.2 78 270 0.3 1.4 1019.4 0.0000 0.0000
07:26 10.5 6.8 78 270 0.3 1.1 1019.5 0.0000 0.0000
07:36 11.1 7.2 77 270 0.8 2.8 1019.6 0.0000 0.0000
07:47 11.5 7.2 75 270 1.1 2.5 1019.6 0.0000 0.0000
07:57 11.7 7 73 270 0.3 1.4 1019.8 0.0000 0.0000
08:06 11.8 6.9 72 270 0.3 1.1 1020 0.0000 0.0000
08:16 12.1 7.2 72 270 0.8 2.5 1020 0.0000 0.0000
08:27 12.7 7.8 72 270 0.8 2.5 1020.1 0.0000 0.0000
08:37 14.1 8.5 69 270 0.8 2.8 1020.1 0.0000 0.0000
08:47 15.1 8.6 65 260 0.8 1.9 1020 0.0000 0.0000
08:57 16.1 8.8 62 270 0.8 1.9 1020.3 0.0000 0.0000
09:07 16.7 8.9 60 270 1.1 2.2 1020.4 0.0000 0.0000
09:17 17.1 8.5 57 270 0.8 2.2 1020.3 0.0000 0.0000
09:27 17.9 9 56 270 0.8 2.2 1020.4 0.0000 0.0000
09:38 18.4 9.2 55 270 0.8 1.9 1020.4 0.0000 0.0000
09:48 18.3 8.3 52 270 0.3 1.9 1020.3 0.0000 0.0000
09:57 18.2 8.7 54 270 0.8 3.3 1020.3 0.0000 0.0000
10:08 18.7 8.9 53 270 0.8 2.2 1020.3 0.0000 0.0000
10:18 19.6 9.2 51 270 0.3 1.9 1020.2 0.0000 0.0000
10:28 20.2 9.2 49 270 0.3 2.5 1020.3 0.0000 0.0000
10:38 19.5 7.9 47 270 0.3 2.2 1020.4 0.0000 0.0000
10:49 18.6 7.1 47 270 0.8 2.2 1020.6 0.0000 0.0000
10:58 18.2 7 48 270 0.3 1.1 1020.4 0.0000 0.0000
11:08 18.4 7.8 50 270 0.8 2.2 1020.4 0.0000 0.0000
11:18 18.6 7.1 47 270 0.3 1.4 1020.4 0.0000 0.0000
11:29 18.7 7.2 47 270 0.3 1.1 1020.3 0.0000 0.0000
11:39 18.4 6.9 47 280 0.8 1.4 1020.5 0.0000 0.0000
11:48 18 6.8 48 270 0.3 1.4 1020.5 0.0000 0.0000
11:59 17.9 7 49 270 0.3 1.9 1020.4 0.0000 0.0000
12:09 18.7 7.8 49 270 0.3 1.4 1020.6 0.0000 0.0000
12:19 19.1 7.5 47 270 0.3 1.4 1020.5 0.0000 0.0000
12:29 19.4 7.8 47 270 0.3 1.1 1020.5 0.0000 0.0000
12:40 19.7 8.1 47 270 0.8 2.2 1020.3 0.0000 0.0000
12:49 20.4 8.7 47 270 0.8 1.4 1020.4 0.0000 0.0000
12:59 21 8.6 45 270 0.3 1.1 1020.3 0.0000 0.0000
13:10 20.8 8.1 44 270 0.8 2.2 1020.4 0.0000 0.0000
13:20 20 7.4 44 270 0.8 2.2 1020.4 0.0000 0.0000
13:30 19.9 7.6 45 270 0.8 1.4 1020.3 0.0000 0.0000
13:39 19.7 7.8 46 270 0.3 1.1 1020.3 0.0000 0.0000
13:50 19.9 8 46 291 0.8 2.5 1020.5 0.0000 0.0000
14:00 20.3 8.6 47 270 0.3 2.2 1020.3 0.0000 0.0000
14:10 21.1 8.4 44 270 0.3 1.4 1020.2 0.0000 0.0000
14:20 21.6 9.2 45 270 0.3 2.2 1020 0.0000 0.0000
14:30 22.2 9 43 270 0.3 1.4 1020 0.0000 0.0000
14:40 21.9 8.4 42 210 0.3 1.4 1019.9 0.0000 0.0000
14:50 21.7 8.2 42 270 0.8 1.9 1020 0.0000 0.0000
15:01 21.9 9.1 44 270 0.8 2.2 1020 0.0000 0.0000
15:11 21.7 8.6 43 270 1.1 2.8 1019.9 0.0000 0.0000
15:21 21.9 9.4 45 255 0.8 2.2 1019.9 0.0000 0.0000
15:30 22.2 9 43 270 0.8 2.2 1020 0.0000 0.0000
15:41 22.5 9 42 270 0.3 1.9 1020 0.0000 0.0000
15:51 22.2 8.3 41 281 0.8 2.2 1019.8 0.0000 0.0000
16:01 21.4 8 42 270 1.1 2.8 1019.8 0.0000 0.0000
16:11 20.9 7.5 42 270 0.3 1.9 1019.9 0.0000 0.0000
16:21 20.6 7.6 43 270 0.8 2.2 1020.1 0.0000 0.0000
16:31 20.6 8.3 45 270 0.8 1.9 1020.1 0.0000 0.0000
16:41 21.3 8.2 43 270 0.8 2.2 1020 0.0000 0.0000
16:52 21.5 8.1 42 270 1.1 2.5 1020.3 0.0000 0.0000
17:02 21 7.6 42 270 0.3 1.1 1020 0.0000 0.0000
17:11 20.9 7.9 43 270 0.3 1.4 1019.8 0.0000 0.0000
17:22 21.3 8.2 43 270 0.8 1.9 1019.7 0.0000 0.0000
17:32 21.4 8.3 43 270 0.8 2.2 1019.9 0.0000 0.0000
17:42 21 7.6 42 291 0.8 2.5 1019.7 0.0000 0.0000
17:52 20.4 7.4 43 305 0.3 1.1 1019.7 0.0000 0.0000
18:03 20.3 8 45 270 0.3 1.1 1019.8 0.0000 0.0000
18:12 20.5 7.5 43 270 0.3 1.4 1020 0.0000 0.0000
18:22 20.3 7.7 44 270 0.8 1.9 1019.8 0.0000 0.0000
18:32 20.2 7.6 44 315 0.3 1.1 1019.7 0.0000 0.0000
18:43 19.7 7.1 44 0 0.3 1019.6 0.0000 0.0000
18:53 19.5 7.3 45 0 0.8 1019.6 0.0000 0.0000
19:02 19.7 7.8 46 270 0.3 1.1 1019.6 0.0000 0.0000
19:13 19.8 7.9 46 270 0.3 0.8 1019.7 0.0000 0.0000
19:23 19.9 8 46 270 0.3 0.8 1019.6 0.0000 0.0000
19:33 19.7 7.1 44 0 0.8 1019.4 0.0000 0.0000
19:43 19.5 7.3 45 270 0.3 1.1 1019.5 0.0000 0.0000
19:54 19.2 7.3 46 270 0.3 0.8 1019.7 0.0000 0.0000
20:03 18.9 7.7 48 0 0.8 1019.7 0.0000 0.0000
20:13 18.5 7.9 50 0 0.8 1019.8 0.0000 0.0000
20:24 18.2 7.6 50 0 0.8 1019.8 0.0000 0.0000
20:34 18 8 52 0 0.8 1020 0.0000 0.0000
20:44 17.8 8.1 53 225 0.3 0.8 1020.1 0.0000 0.0000
20:53 17.7 8.3 54 215 0.3 0.8 1020 0.0000 0.0000
21:04 17.6 8.5 55 225 0.3 0.8 1020 0.0000 0.0000
21:14 17.3 8.7 57 225 0.3 0.8 1020.1 0.0000 0.0000
21:24 17 8.7 58 0 0.3 1020.1 0.0000 0.0000
21:34 16.7 8.4 58 0 0.8 1020.4 0.0000 0.0000
21:45 16.4 8.4 59 0 0.8 1020.4 0.0000 0.0000
21:54 16.2 8.4 60 0 0.3 1020.7 0.0000 0.0000
22:04 16.1 8.6 61 270 0.3 1.4 1020.9 0.0000 0.0000
22:15 16 7.8 58 270 0.3 1.9 1021 0.0000 0.0000
22:25 16 7.2 56 270 0.3 0.8 1021 0.0000 0.0000
22:35 16 7 55 270 0.3 1.1 1021.1 0.0000 0.0000
22:45 15.8 6.8 55 270 0.3 1.1 1021.2 0.0000 0.0000
22:55 15.6 6.6 55 270 0.3 1.4 1021.2 0.0000 0.0000
23:05 15.3 6.6 56 270 0.3 1.4 1021.3 0.0000 0.0000
23:15 15 6.6 57 270 0.3 1.1 1021.3 0.0000 0.0000
23:26 14.7 6.5 58 270 0.3 1.1 1021.5 0.0000 0.0000
23:36 14.3 6.4 59 270 0.3 0.8 1021.6 0.0000 0.0000
23:46 14 6.6 61 0 0.8 1021.5 0.0000 0.0000
23:55 13.7 6.3 61 270 0.3 0.8 1021.6 0.0000 0.0000

DAY STATISTIC

2024-06-11
TEMPERATURE
AVERAGE
16.1
HIGH
22.5
15:41
LOW
8.4
06:06
PRESSURE
AVERAGE
1019.5
HIGH
1021.6
23:36
LOW
1016.6
00:02
DEWPOINT
AVERAGE
7.1
HIGH
9.4
15:21
LOW
4.3
05:45
HUMIDITY
AVERAGE
56
HIGH
79
06:56
LOW
41
15:51
WIND SPEED
AVERAGE
0.4
HIGH
1.1
00:32
WIND GUST
AVERAGE
1.5
HIGH
3.3
00:52
WIND DIRECTION
PREVAILING
W
77.6%
N
0.0
NE
0.0
E
0.0
SE
0.0
S
0.0
SW
4.2
W
77.6
NW
3.5
PRECIPITATION
RAIN HOUR
0.0
RAIN DAY
0.0
TEMPERATURE (°C)
LOW
8.4
HIGH
22.5
AVERAGE
16.1
PRESSURE (hpa)
LOW
1016.6
HIGH
1021.6
AVERAGE
1019.5
DEVICE